createdAt,value
2023-02-02T00:00:05.861Z,10.5
2023-02-02T00:10:05.980Z,10.5
2023-02-02T00:20:05.838Z,10.5
2023-02-02T00:30:05.959Z,9.5
2023-02-02T00:40:05.830Z,9.5
2023-02-02T00:50:06.001Z,10
2023-02-02T01:00:06.038Z,10
2023-02-02T01:10:05.961Z,10
2023-02-02T01:20:06.034Z,10
2023-02-02T01:30:05.964Z,10
2023-02-02T01:40:06.024Z,10
2023-02-02T01:50:05.947Z,10
2023-02-02T02:00:06.026Z,10.5
2023-02-02T02:10:06.136Z,11
2023-02-02T02:20:05.999Z,11
2023-02-02T02:30:06.252Z,10.5
2023-02-02T02:40:06.005Z,11
2023-02-02T02:50:06.112Z,10.5
2023-02-02T03:00:05.987Z,10.5
2023-02-02T03:10:06.124Z,10.5
2023-02-02T03:20:05.999Z,11
2023-02-02T03:30:06.121Z,11
2023-02-02T03:40:05.993Z,11
2023-02-02T03:50:06.110Z,11
2023-02-02T04:00:06.187Z,11
2023-02-02T04:10:06.133Z,11
2023-02-02T04:20:06.219Z,11
2023-02-02T04:30:06.162Z,11
2023-02-02T04:40:06.173Z,11
2023-02-02T04:50:06.100Z,11
2023-02-02T05:00:06.199Z,11
2023-02-02T05:10:06.345Z,11
2023-02-02T05:20:06.176Z,11
2023-02-02T05:30:06.317Z,11
2023-02-02T05:40:06.186Z,11
2023-02-02T05:50:06.315Z,11
2023-02-02T06:00:06.201Z,11
2023-02-02T06:10:06.307Z,11
2023-02-02T06:20:06.168Z,11
2023-02-02T06:30:06.304Z,11
2023-02-02T06:40:06.370Z,11
2023-02-02T06:50:06.305Z,11
2023-02-02T07:00:06.358Z,11
2023-02-02T07:10:06.308Z,11
2023-02-02T07:20:06.337Z,11
2023-02-02T07:30:06.282Z,11
2023-02-02T07:40:06.352Z,11
2023-02-02T07:50:06.283Z,11
2023-02-02T08:00:06.376Z,10.5
2023-02-02T08:10:06.312Z,10.5
2023-02-02T08:20:06.421Z,11
2023-02-02T08:30:06.526Z,11
2023-02-02T08:40:06.464Z,11
2023-02-02T08:50:06.506Z,11
2023-02-02T09:00:06.375Z,11
2023-02-02T09:10:06.498Z,11
2023-02-02T09:20:06.359Z,12
2023-02-02T09:30:06.494Z,12
2023-02-02T09:40:06.355Z,12
2023-02-02T09:50:06.499Z,12
2023-02-02T10:00:06.403Z,12
2023-02-02T10:10:06.528Z,12
2023-02-02T10:20:06.598Z,13
2023-02-02T10:30:06.516Z,13
2023-02-02T10:40:06.660Z,13
2023-02-02T10:50:06.574Z,13
2023-02-02T11:00:06.602Z,13
2023-02-02T11:10:06.534Z,13
2023-02-02T11:20:06.574Z,13
2023-02-02T11:30:06.561Z,13
2023-02-02T11:40:06.663Z,12.5
2023-02-02T11:50:06.753Z,13
2023-02-02T12:00:06.585Z,13
2023-02-02T12:10:06.751Z,13
2023-02-02T12:20:06.588Z,13
2023-02-02T12:30:06.736Z,13
2023-02-02T12:40:06.594Z,13
2023-02-02T12:50:06.709Z,13
2023-02-02T13:00:06.561Z,13
2023-02-02T13:10:06.684Z,13
2023-02-02T13:20:06.768Z,13
2023-02-02T13:30:06.824Z,13
2023-02-02T13:40:06.840Z,13
2023-02-02T13:50:06.749Z,13
2023-02-02T14:00:06.921Z,14
2023-02-02T14:10:06.784Z,14
2023-02-02T14:20:06.768Z,14
2023-02-02T14:30:06.658Z,13.5
2023-02-02T14:40:06.755Z,13.5
2023-02-02T14:50:06.905Z,13.5
2023-02-02T15:00:06.722Z,13.5
2023-02-02T15:10:06.861Z,13.5
2023-02-02T15:20:06.750Z,13.5
2023-02-02T15:30:06.852Z,13
2023-02-02T15:40:06.714Z,12.5
2023-02-02T15:50:06.843Z,12.5
2023-02-02T16:00:06.931Z,12.5
2023-02-02T16:10:06.878Z,12.5
2023-02-02T16:20:06.926Z,12.5
2023-02-02T16:30:06.882Z,12.5
2023-02-02T16:40:06.988Z,12.5
2023-02-02T16:50:06.920Z,12.5
2023-02-02T17:00:06.987Z,12.5
2023-02-02T17:10:08.083Z,12.5
2023-02-02T17:20:06.839Z,12.5
2023-02-02T17:30:06.940Z,13
2023-02-02T17:40:06.807Z,12.5
2023-02-02T17:50:06.958Z,12.5
2023-02-02T18:00:07.035Z,12.5
2023-02-02T18:10:06.948Z,12.5
2023-02-02T18:20:07.013Z,12.5
2023-02-02T18:30:06.910Z,11.5
2023-02-02T18:40:07.930Z,11.5
2023-02-02T18:50:06.940Z,11.5
2023-02-02T19:00:07.024Z,11.5
2023-02-02T19:10:07.120Z,11.5
2023-02-02T19:20:06.979Z,11.5
2023-02-02T19:30:07.092Z,11.5
2023-02-02T19:40:07.001Z,11.5
2023-02-02T19:50:07.143Z,11.5
2023-02-02T20:00:06.981Z,11.5
2023-02-02T20:10:07.080Z,12
2023-02-02T20:20:07.098Z,12
2023-02-02T20:30:07.096Z,12
2023-02-02T20:40:07.176Z,12
2023-02-02T20:50:07.115Z,12
2023-02-02T21:00:07.155Z,12
2023-02-02T21:10:07.184Z,12
2023-02-02T21:20:07.180Z,12
2023-02-02T21:30:07.114Z,12
2023-02-02T21:40:07.167Z,12
2023-02-02T21:50:07.288Z,12
2023-02-02T22:00:07.136Z,12
2023-02-02T22:10:07.276Z,12
2023-02-02T22:20:07.182Z,12
2023-02-02T22:30:07.284Z,12
2023-02-02T22:40:07.163Z,12
2023-02-02T22:50:07.249Z,12
2023-02-02T23:00:07.154Z,12
2023-02-02T23:10:07.341Z,11.5
2023-02-02T23:20:07.357Z,11.5
2023-02-02T23:30:07.248Z,11.5
2023-02-02T23:40:07.323Z,12
2023-02-02T23:50:07.267Z,11.5
